sensor_id;sensor_type;location;lat;lon;timestamp;temperature;humidity
69715;HTU21D;56981;53.532;49.398;2023-02-28T00:00:36;0.19;69.03
69715;HTU21D;56981;53.532;49.398;2023-02-28T00:03:02;0.18;69.83
69715;HTU21D;56981;53.532;49.398;2023-02-28T00:05:29;0.17;69.96
69715;HTU21D;56981;53.532;49.398;2023-02-28T00:07:55;0.16;69.93
69715;HTU21D;56981;53.532;49.398;2023-02-28T00:10:26;0.09;69.58
69715;HTU21D;56981;53.532;49.398;2023-02-28T00:12:54;0.09;70.60
69715;HTU21D;56981;53.532;49.398;2023-02-28T00:15:23;0.14;70.32
69715;HTU21D;56981;53.532;49.398;2023-02-28T00:17:49;0.18;69.59
69715;HTU21D;56981;53.532;49.398;2023-02-28T00:20:16;0.22;69.52
69715;HTU21D;56981;53.532;49.398;2023-02-28T00:22:44;0.24;70.19
69715;HTU21D;56981;53.532;49.398;2023-02-28T00:25:13;0.30;69.58
69715;HTU21D;56981;53.532;49.398;2023-02-28T00:27:40;0.22;69.44
69715;HTU21D;56981;53.532;49.398;2023-02-28T00:30:09;0.15;70.18
69715;HTU21D;56981;53.532;49.398;2023-02-28T00:32:39;0.16;70.63
69715;HTU21D;56981;53.532;49.398;2023-02-28T00:35:06;0.17;69.85
69715;HTU21D;56981;53.532;49.398;2023-02-28T00:37:33;0.16;70.41
69715;HTU21D;56981;53.532;49.398;2023-02-28T00:40:00;0.14;70.65
69715;HTU21D;56981;53.532;49.398;2023-02-28T00:42:29;0.08;69.79
69715;HTU21D;56981;53.532;49.398;2023-02-28T00:44:55;0.07;70.60
69715;HTU21D;56981;53.532;49.398;2023-02-28T00:47:21;0.04;71.19
69715;HTU21D;56981;53.532;49.398;2023-02-28T00:49:47;0.04;70.97
69715;HTU21D;56981;53.532;49.398;2023-02-28T00:52:13;0.05;69.75
69715;HTU21D;56981;53.532;49.398;2023-02-28T00:54:39;0.07;69.87
69715;HTU21D;56981;53.532;49.398;2023-02-28T00:57:06;0.06;70.29
69715;HTU21D;56981;53.532;49.398;2023-02-28T00:59:32;0.07;69.77
69715;HTU21D;56981;53.532;49.398;2023-02-28T01:01:58;0.08;70.33
69715;HTU21D;56981;53.532;49.398;2023-02-28T01:04:25;0.06;71.88
69715;HTU21D;56981;53.532;49.398;2023-02-28T01:06:51;0.10;71.06
69715;HTU21D;56981;53.532;49.398;2023-02-28T01:09:17;0.10;69.80
69715;HTU21D;56981;53.532;49.398;2023-02-28T01:11:43;0.04;71.65
69715;HTU21D;56981;53.532;49.398;2023-02-28T01:14:15;0.06;71.34
69715;HTU21D;56981;53.532;49.398;2023-02-28T01:16:42;0.06;70.18
69715;HTU21D;56981;53.532;49.398;2023-02-28T01:19:08;-0.02;70.74
69715;HTU21D;56981;53.532;49.398;2023-02-28T01:21:34;-0.08;70.57
69715;HTU21D;56981;53.532;49.398;2023-02-28T01:24:02;-0.13;71.00
69715;HTU21D;56981;53.532;49.398;2023-02-28T01:26:28;-0.15;70.71
69715;HTU21D;56981;53.532;49.398;2023-02-28T01:28:55;-0.11;70.42
69715;HTU21D;56981;53.532;49.398;2023-02-28T01:31:22;-0.09;70.00
69715;HTU21D;56981;53.532;49.398;2023-02-28T01:33:49;-0.07;70.52
69715;HTU21D;56981;53.532;49.398;2023-02-28T01:36:18;-0.08;70.90
69715;HTU21D;56981;53.532;49.398;2023-02-28T01:38:45;-0.06;70.21
69715;HTU21D;56981;53.532;49.398;2023-02-28T01:41:17;-0.01;70.50
69715;HTU21D;56981;53.532;49.398;2023-02-28T01:46:11;0.01;69.31
69715;HTU21D;56981;53.532;49.398;2023-02-28T01:48:44;-0.03;69.33
69715;HTU21D;56981;53.532;49.398;2023-02-28T01:51:20;-0.00;69.65
69715;HTU21D;56981;53.532;49.398;2023-02-28T01:53:51;-0.00;69.68
69715;HTU21D;56981;53.532;49.398;2023-02-28T01:56:24;0.01;70.21
69715;HTU21D;56981;53.532;49.398;2023-02-28T01:58:51;-0.02;69.04
69715;HTU21D;56981;53.532;49.398;2023-02-28T02:01:20;-0.08;68.97
69715;HTU21D;56981;53.532;49.398;2023-02-28T02:03:53;-0.02;69.73
69715;HTU21D;56981;53.532;49.398;2023-02-28T02:06:25;-0.03;69.99
69715;HTU21D;56981;53.532;49.398;2023-02-28T02:08:51;-0.03;69.92
69715;HTU21D;56981;53.532;49.398;2023-02-28T02:11:19;-0.07;69.50
69715;HTU21D;56981;53.532;49.398;2023-02-28T02:19:49;-0.17;68.80
69715;HTU21D;56981;53.532;49.398;2023-02-28T02:25:11;-0.22;67.93
69715;HTU21D;56981;53.532;49.398;2023-02-28T02:36:00;-0.08;68.13
69715;HTU21D;56981;53.532;49.398;2023-02-28T02:38:32;-0.16;66.33
69715;HTU21D;56981;53.532;49.398;2023-02-28T02:41:12;-0.22;66.64
69715;HTU21D;56981;53.532;49.398;2023-02-28T02:43:43;-0.25;67.51
69715;HTU21D;56981;53.532;49.398;2023-02-28T02:46:23;-0.31;67.44
69715;HTU21D;56981;53.532;49.398;2023-02-28T02:48:50;-0.26;66.80
69715;HTU21D;56981;53.532;49.398;2023-02-28T02:51:22;-0.19;69.23
69715;HTU21D;56981;53.532;49.398;2023-02-28T02:53:55;-0.22;67.23
69715;HTU21D;56981;53.532;49.398;2023-02-28T02:56:26;-0.23;69.07
69715;HTU21D;56981;53.532;49.398;2023-02-28T02:58:57;-0.22;68.46
69715;HTU21D;56981;53.532;49.398;2023-02-28T03:01:26;-0.21;67.75
69715;HTU21D;56981;53.532;49.398;2023-02-28T03:04:01;-0.28;69.36
69715;HTU21D;56981;53.532;49.398;2023-02-28T03:06:28;-0.32;69.49
69715;HTU21D;56981;53.532;49.398;2023-02-28T03:08:54;-0.27;69.20
69715;HTU21D;56981;53.532;49.398;2023-02-28T03:11:20;-0.29;68.81
69715;HTU21D;56981;53.532;49.398;2023-02-28T03:17:03;-0.24;69.19
69715;HTU21D;56981;53.532;49.398;2023-02-28T03:19:51;-0.29;68.47
69715;HTU21D;56981;53.532;49.398;2023-02-28T03:25:27;-0.32;69.24
69715;HTU21D;56981;53.532;49.398;2023-02-28T03:28:01;-0.26;68.46
69715;HTU21D;56981;53.532;49.398;2023-02-28T03:33:09;-0.28;68.33
69715;HTU21D;56981;53.532;49.398;2023-02-28T03:36:09;-0.28;68.49
69715;HTU21D;56981;53.532;49.398;2023-02-28T03:38:51;-0.30;69.87
69715;HTU21D;56981;53.532;49.398;2023-02-28T03:41:25;-0.37;69.03
69715;HTU21D;56981;53.532;49.398;2023-02-28T03:43:56;-0.31;68.26
69715;HTU21D;56981;53.532;49.398;2023-02-28T03:46:27;-0.26;69.13
69715;HTU21D;56981;53.532;49.398;2023-02-28T03:49:09;-0.39;68.55
69715;HTU21D;56981;53.532;49.398;2023-02-28T03:51:39;-0.35;68.97
69715;HTU21D;56981;53.532;49.398;2023-02-28T03:54:09;-0.31;70.17
69715;HTU21D;56981;53.532;49.398;2023-02-28T03:57:07;-0.28;68.62
69715;HTU21D;56981;53.532;49.398;2023-02-28T03:59:37;-0.29;68.79
69715;HTU21D;56981;53.532;49.398;2023-02-28T04:02:05;-0.25;69.26
69715;HTU21D;56981;53.532;49.398;2023-02-28T04:04:31;-0.19;69.36
69715;HTU21D;56981;53.532;49.398;2023-02-28T04:07:04;-0.12;68.73
69715;HTU21D;56981;53.532;49.398;2023-02-28T04:09:30;-0.24;68.09
69715;HTU21D;56981;53.532;49.398;2023-02-28T04:11:58;-0.22;68.88
69715;HTU21D;56981;53.532;49.398;2023-02-28T04:14:24;-0.22;68.78
69715;HTU21D;56981;53.532;49.398;2023-02-28T04:16:51;-0.20;68.33
69715;HTU21D;56981;53.532;49.398;2023-02-28T04:19:18;-0.17;69.00
69715;HTU21D;56981;53.532;49.398;2023-02-28T04:21:49;-0.24;69.58
69715;HTU21D;56981;53.532;49.398;2023-02-28T04:24:18;-0.34;69.10
69715;HTU21D;56981;53.532;49.398;2023-02-28T04:26:47;-0.31;69.84
69715;HTU21D;56981;53.532;49.398;2023-02-28T04:29:18;-0.26;69.19
69715;HTU21D;56981;53.532;49.398;2023-02-28T04:31:45;-0.24;68.49
69715;HTU21D;56981;53.532;49.398;2023-02-28T04:34:11;-0.28;69.17
69715;HTU21D;56981;53.532;49.398;2023-02-28T04:36:37;-0.27;68.99
69715;HTU21D;56981;53.532;49.398;2023-02-28T04:39:03;-0.24;69.96
69715;HTU21D;56981;53.532;49.398;2023-02-28T04:41:30;-0.25;69.05
69715;HTU21D;56981;53.532;49.398;2023-02-28T04:43:56;-0.25;69.67
69715;HTU21D;56981;53.532;49.398;2023-02-28T04:46:23;-0.28;69.14
69715;HTU21D;56981;53.532;49.398;2023-02-28T04:48:49;-0.27;69.59
69715;HTU21D;56981;53.532;49.398;2023-02-28T04:51:16;-0.29;69.92
69715;HTU21D;56981;53.532;49.398;2023-02-28T04:53:43;-0.26;69.49
69715;HTU21D;56981;53.532;49.398;2023-02-28T04:56:14;-0.25;70.04
69715;HTU21D;56981;53.532;49.398;2023-02-28T04:58:40;-0.19;70.23
69715;HTU21D;56981;53.532;49.398;2023-02-28T05:01:17;-0.19;71.32
69715;HTU21D;56981;53.532;49.398;2023-02-28T05:03:44;-0.09;69.71
69715;HTU21D;56981;53.532;49.398;2023-02-28T05:06:17;-0.08;69.04
69715;HTU21D;56981;53.532;49.398;2023-02-28T05:08:43;-0.16;67.05
69715;HTU21D;56981;53.532;49.398;2023-02-28T05:11:22;-0.19;68.67
69715;HTU21D;56981;53.532;49.398;2023-02-28T05:13:52;-0.17;67.20
69715;HTU21D;56981;53.532;49.398;2023-02-28T05:16:19;-0.11;68.48
69715;HTU21D;56981;53.532;49.398;2023-02-28T05:18:45;-0.14;67.86
69715;HTU21D;56981;53.532;49.398;2023-02-28T05:21:38;-0.22;67.08
69715;HTU21D;56981;53.532;49.398;2023-02-28T05:24:10;-0.15;69.21
69715;HTU21D;56981;53.532;49.398;2023-02-28T05:26:39;-0.11;68.94
69715;HTU21D;56981;53.532;49.398;2023-02-28T05:29:05;-0.13;67.39
69715;HTU21D;56981;53.532;49.398;2023-02-28T05:31:32;0.01;66.39
69715;HTU21D;56981;53.532;49.398;2023-02-28T05:33:58;-0.02;66.17
69715;HTU21D;56981;53.532;49.398;2023-02-28T05:36:25;0.04;65.95
69715;HTU21D;56981;53.532;49.398;2023-02-28T05:38:53;0.04;66.20
69715;HTU21D;56981;53.532;49.398;2023-02-28T05:41:20;0.14;66.00
69715;HTU21D;56981;53.532;49.398;2023-02-28T05:43:47;0.18;64.21
69715;HTU21D;56981;53.532;49.398;2023-02-28T05:46:14;0.23;64.04
69715;HTU21D;56981;53.532;49.398;2023-02-28T05:48:42;0.25;65.90
69715;HTU21D;56981;53.532;49.398;2023-02-28T05:51:10;0.34;63.05
69715;HTU21D;56981;53.532;49.398;2023-02-28T05:53:36;0.52;63.21
69715;HTU21D;56981;53.532;49.398;2023-02-28T05:56:03;0.66;64.91
69715;HTU21D;56981;53.532;49.398;2023-02-28T05:58:29;0.71;62.19
69715;HTU21D;56981;53.532;49.398;2023-02-28T06:00:57;0.71;62.41
69715;HTU21D;56981;53.532;49.398;2023-02-28T06:03:23;0.75;63.15
69715;HTU21D;56981;53.532;49.398;2023-02-28T06:05:49;0.87;61.44
69715;HTU21D;56981;53.532;49.398;2023-02-28T06:08:16;0.91;60.83
69715;HTU21D;56981;53.532;49.398;2023-02-28T06:10:42;1.01;62.58
69715;HTU21D;56981;53.532;49.398;2023-02-28T06:13:08;1.13;61.05
69715;HTU21D;56981;53.532;49.398;2023-02-28T06:15:38;1.02;61.14
69715;HTU21D;56981;53.532;49.398;2023-02-28T06:18:05;1.23;60.33
69715;HTU21D;56981;53.532;49.398;2023-02-28T06:20:31;1.42;58.89
69715;HTU21D;56981;53.532;49.398;2023-02-28T06:22:58;1.56;60.73
69715;HTU21D;56981;53.532;49.398;2023-02-28T06:25:25;1.70;59.22
69715;HTU21D;56981;53.532;49.398;2023-02-28T06:27:52;1.71;58.52
69715;HTU21D;56981;53.532;49.398;2023-02-28T06:30:18;1.83;58.61
69715;HTU21D;56981;53.532;49.398;2023-02-28T06:32:49;1.86;58.97
69715;HTU21D;56981;53.532;49.398;2023-02-28T06:35:16;1.79;58.69
69715;HTU21D;56981;53.532;49.398;2023-02-28T06:37:42;2.05;57.41
69715;HTU21D;56981;53.532;49.398;2023-02-28T06:40:10;2.16;58.13
69715;HTU21D;56981;53.532;49.398;2023-02-28T06:42:36;2.09;56.90
69715;HTU21D;56981;53.532;49.398;2023-02-28T06:45:02;1.96;58.48
69715;HTU21D;56981;53.532;49.398;2023-02-28T06:47:36;1.96;59.04
69715;HTU21D;56981;53.532;49.398;2023-02-28T06:50:03;1.93;59.04
69715;HTU21D;56981;53.532;49.398;2023-02-28T06:52:30;2.05;58.31
69715;HTU21D;56981;53.532;49.398;2023-02-28T06:54:56;2.22;57.86
69715;HTU21D;56981;53.532;49.398;2023-02-28T06:57:29;2.21;57.55
69715;HTU21D;56981;53.532;49.398;2023-02-28T07:00:01;2.16;59.11
69715;HTU21D;56981;53.532;49.398;2023-02-28T07:02:27;2.09;59.24
69715;HTU21D;56981;53.532;49.398;2023-02-28T07:04:56;1.98;59.16
69715;HTU21D;56981;53.532;49.398;2023-02-28T07:07:22;1.77;59.95
69715;HTU21D;56981;53.532;49.398;2023-02-28T07:09:48;1.79;58.55
69715;HTU21D;56981;53.532;49.398;2023-02-28T07:12:16;1.70;58.67
69715;HTU21D;56981;53.532;49.398;2023-02-28T07:14:43;1.60;58.32
69715;HTU21D;56981;53.532;49.398;2023-02-28T07:17:10;1.82;59.66
69715;HTU21D;56981;53.532;49.398;2023-02-28T07:19:38;2.09;57.39
69715;HTU21D;56981;53.532;49.398;2023-02-28T07:22:05;1.78;58.48
69715;HTU21D;56981;53.532;49.398;2023-02-28T07:24:32;1.63;58.83
69715;HTU21D;56981;53.532;49.398;2023-02-28T07:26:58;1.72;58.94
69715;HTU21D;56981;53.532;49.398;2023-02-28T07:29:25;1.99;58.82
69715;HTU21D;56981;53.532;49.398;2023-02-28T07:31:51;2.01;58.00
69715;HTU21D;56981;53.532;49.398;2023-02-28T07:34:19;2.31;57.63
69715;HTU21D;56981;53.532;49.398;2023-02-28T07:36:45;2.34;57.11
69715;HTU21D;56981;53.532;49.398;2023-02-28T07:39:12;2.11;58.86
69715;HTU21D;56981;53.532;49.398;2023-02-28T07:41:38;2.47;58.06
69715;HTU21D;56981;53.532;49.398;2023-02-28T07:44:12;2.61;58.16
69715;HTU21D;56981;53.532;49.398;2023-02-28T07:46:38;2.52;57.11
69715;HTU21D;56981;53.532;49.398;2023-02-28T07:49:05;2.46;57.42
69715;HTU21D;56981;53.532;49.398;2023-02-28T07:51:31;2.50;57.96
69715;HTU21D;56981;53.532;49.398;2023-02-28T07:53:58;2.50;59.60
69715;HTU21D;56981;53.532;49.398;2023-02-28T07:56:24;2.57;58.45
69715;HTU21D;56981;53.532;49.398;2023-02-28T07:58:50;2.46;58.09
69715;HTU21D;56981;53.532;49.398;2023-02-28T08:01:16;2.44;57.74
69715;HTU21D;56981;53.532;49.398;2023-02-28T08:03:44;2.35;58.64
69715;HTU21D;56981;53.532;49.398;2023-02-28T08:06:20;2.32;58.27
69715;HTU21D;56981;53.532;49.398;2023-02-28T08:08:46;2.36;58.87
69715;HTU21D;56981;53.532;49.398;2023-02-28T08:11:13;2.35;58.89
69715;HTU21D;56981;53.532;49.398;2023-02-28T08:13:39;2.37;60.64
69715;HTU21D;56981;53.532;49.398;2023-02-28T08:16:05;2.21;59.58
69715;HTU21D;56981;53.532;49.398;2023-02-28T08:18:32;2.00;60.12
69715;HTU21D;56981;53.532;49.398;2023-02-28T08:20:58;1.97;60.96
69715;HTU21D;56981;53.532;49.398;2023-02-28T08:23:24;1.81;59.93
69715;HTU21D;56981;53.532;49.398;2023-02-28T08:25:55;1.47;60.13
69715;HTU21D;56981;53.532;49.398;2023-02-28T08:28:21;1.47;62.36
69715;HTU21D;56981;53.532;49.398;2023-02-28T08:30:48;1.68;60.47
69715;HTU21D;56981;53.532;49.398;2023-02-28T08:33:14;1.86;61.21
69715;HTU21D;56981;53.532;49.398;2023-02-28T08:35:40;2.08;60.43
69715;HTU21D;56981;53.532;49.398;2023-02-28T08:38:06;1.93;59.22
69715;HTU21D;56981;53.532;49.398;2023-02-28T08:40:32;2.07;59.42
69715;HTU21D;56981;53.532;49.398;2023-02-28T08:42:59;2.10;59.58
69715;HTU21D;56981;53.532;49.398;2023-02-28T08:45:25;2.27;59.61
69715;HTU21D;56981;53.532;49.398;2023-02-28T08:47:51;2.42;58.75
69715;HTU21D;56981;53.532;49.398;2023-02-28T08:50:20;2.54;57.96
69715;HTU21D;56981;53.532;49.398;2023-02-28T08:52:46;2.36;57.30
69715;HTU21D;56981;53.532;49.398;2023-02-28T08:55:12;2.19;59.01
69715;HTU21D;56981;53.532;49.398;2023-02-28T08:57:39;2.21;59.16
69715;HTU21D;56981;53.532;49.398;2023-02-28T09:00:05;2.24;57.24
69715;HTU21D;56981;53.532;49.398;2023-02-28T09:02:32;2.43;57.31
69715;HTU21D;56981;53.532;49.398;2023-02-28T09:04:58;2.60;57.55
69715;HTU21D;56981;53.532;49.398;2023-02-28T09:07:25;2.65;56.81
69715;HTU21D;56981;53.532;49.398;2023-02-28T09:09:51;2.74;57.30
69715;HTU21D;56981;53.532;49.398;2023-02-28T09:12:21;2.82;56.50
69715;HTU21D;56981;53.532;49.398;2023-02-28T09:14:48;2.94;58.54
69715;HTU21D;56981;53.532;49.398;2023-02-28T09:17:14;2.95;56.56
69715;HTU21D;56981;53.532;49.398;2023-02-28T09:19:40;3.00;56.93
69715;HTU21D;56981;53.532;49.398;2023-02-28T09:22:07;2.99;55.90
69715;HTU21D;56981;53.532;49.398;2023-02-28T09:24:33;2.76;56.14
69715;HTU21D;56981;53.532;49.398;2023-02-28T09:26:59;2.41;58.13
69715;HTU21D;56981;53.532;49.398;2023-02-28T09:29:25;2.15;58.24
69715;HTU21D;56981;53.532;49.398;2023-02-28T09:31:51;2.38;58.57
69715;HTU21D;56981;53.532;49.398;2023-02-28T09:34:17;2.52;57.67
69715;HTU21D;56981;53.532;49.398;2023-02-28T09:36:43;2.43;57.45
69715;HTU21D;56981;53.532;49.398;2023-02-28T09:39:09;2.29;58.79
69715;HTU21D;56981;53.532;49.398;2023-02-28T09:41:44;1.99;58.15
69715;HTU21D;56981;53.532;49.398;2023-02-28T09:44:24;2.07;58.32
69715;HTU21D;56981;53.532;49.398;2023-02-28T09:49:46;2.46;58.27
69715;HTU21D;56981;53.532;49.398;2023-02-28T09:52:17;2.52;58.56
69715;HTU21D;56981;53.532;49.398;2023-02-28T09:54:45;2.53;58.09
69715;HTU21D;56981;53.532;49.398;2023-02-28T09:57:36;2.27;57.59
69715;HTU21D;56981;53.532;49.398;2023-02-28T10:03:26;1.88;59.92
69715;HTU21D;56981;53.532;49.398;2023-02-28T10:06:00;1.83;59.86
69715;HTU21D;56981;53.532;49.398;2023-02-28T10:08:52;1.88;59.83
69715;HTU21D;56981;53.532;49.398;2023-02-28T10:11:22;1.69;60.91
69715;HTU21D;56981;53.532;49.398;2023-02-28T10:13:53;1.76;61.00
69715;HTU21D;56981;53.532;49.398;2023-02-28T10:16:40;2.01;60.80
69715;HTU21D;56981;53.532;49.398;2023-02-28T10:21:59;2.15;59.53
69715;HTU21D;56981;53.532;49.398;2023-02-28T10:24:28;1.96;60.12
69715;HTU21D;56981;53.532;49.398;2023-02-28T10:27:00;1.64;62.53
69715;HTU21D;56981;53.532;49.398;2023-02-28T10:29:31;1.77;61.87
69715;HTU21D;56981;53.532;49.398;2023-02-28T10:32:02;1.76;63.42
69715;HTU21D;56981;53.532;49.398;2023-02-28T10:34:29;1.67;62.19
69715;HTU21D;56981;53.532;49.398;2023-02-28T10:36:56;1.41;62.25
69715;HTU21D;56981;53.532;49.398;2023-02-28T10:39:41;1.39;63.89
69715;HTU21D;56981;53.532;49.398;2023-02-28T10:42:24;1.46;64.12
69715;HTU21D;56981;53.532;49.398;2023-02-28T10:45:11;1.48;63.98
69715;HTU21D;56981;53.532;49.398;2023-02-28T10:50:37;1.43;63.50
69715;HTU21D;56981;53.532;49.398;2023-02-28T10:53:22;1.42;63.42
69715;HTU21D;56981;53.532;49.398;2023-02-28T10:58:57;1.42;64.01
69715;HTU21D;56981;53.532;49.398;2023-02-28T11:03:56;1.29;64.21
69715;HTU21D;56981;53.532;49.398;2023-02-28T11:06:30;1.31;64.98
69715;HTU21D;56981;53.532;49.398;2023-02-28T11:11:47;1.28;64.80
69715;HTU21D;56981;53.532;49.398;2023-02-28T11:14:36;1.17;64.05
69715;HTU21D;56981;53.532;49.398;2023-02-28T11:17:29;1.04;64.05
69715;HTU21D;56981;53.532;49.398;2023-02-28T11:20:05;1.09;65.17
69715;HTU21D;56981;53.532;49.398;2023-02-28T11:22:37;1.03;63.91
69715;HTU21D;56981;53.532;49.398;2023-02-28T11:25:23;0.92;64.71
69715;HTU21D;56981;53.532;49.398;2023-02-28T11:27:53;0.98;64.40
69715;HTU21D;56981;53.532;49.398;2023-02-28T11:30:32;0.97;65.04
69715;HTU21D;56981;53.532;49.398;2023-02-28T11:33:01;1.01;65.35
69715;HTU21D;56981;53.532;49.398;2023-02-28T11:38:00;0.98;64.47
69715;HTU21D;56981;53.532;49.398;2023-02-28T11:51:35;0.81;65.85
69715;HTU21D;56981;53.532;49.398;2023-02-28T11:54:21;0.64;66.69
69715;HTU21D;56981;53.532;49.398;2023-02-28T12:00:00;0.50;67.68
69715;HTU21D;56981;53.532;49.398;2023-02-28T12:03:33;0.50;68.01
69715;HTU21D;56981;53.532;49.398;2023-02-28T12:05:42;0.46;66.93
69715;HTU21D;56981;53.532;49.398;2023-02-28T12:13:43;0.53;66.69
69715;HTU21D;56981;53.532;49.398;2023-02-28T12:26:45;0.43;66.04
69715;HTU21D;56981;53.532;49.398;2023-02-28T12:29:49;0.55;66.51
69715;HTU21D;56981;53.532;49.398;2023-02-28T12:32:40;0.59;65.80
69715;HTU21D;56981;53.532;49.398;2023-02-28T12:35:14;0.55;66.71
69715;HTU21D;56981;53.532;49.398;2023-02-28T12:38:21;0.42;67.28
69715;HTU21D;56981;53.532;49.398;2023-02-28T12:41:01;0.37;67.84
69715;HTU21D;56981;53.532;49.398;2023-02-28T12:43:43;0.37;68.55
69715;HTU21D;56981;53.532;49.398;2023-02-28T12:46:21;0.40;67.33
69715;HTU21D;56981;53.532;49.398;2023-02-28T12:48:56;0.43;65.93
69715;HTU21D;56981;53.532;49.398;2023-02-28T12:51:28;0.42;66.11
69715;HTU21D;56981;53.532;49.398;2023-02-28T12:54:07;0.40;65.94
69715;HTU21D;56981;53.532;49.398;2023-02-28T13:08:01;0.04;67.88
69715;HTU21D;56981;53.532;49.398;2023-02-28T13:10:44;0.01;67.81
69715;HTU21D;56981;53.532;49.398;2023-02-28T13:13:17;-0.05;68.59
69715;HTU21D;56981;53.532;49.398;2023-02-28T13:18:31;-0.10;70.48
69715;HTU21D;56981;53.532;49.398;2023-02-28T13:20:59;-0.12;70.29
69715;HTU21D;56981;53.532;49.398;2023-02-28T13:26:11;-0.27;70.48
69715;HTU21D;56981;53.532;49.398;2023-02-28T13:29:03;-0.30;72.33
69715;HTU21D;56981;53.532;49.398;2023-02-28T13:31:30;-0.32;70.58
69715;HTU21D;56981;53.532;49.398;2023-02-28T13:36:28;-0.34;70.72
69715;HTU21D;56981;53.532;49.398;2023-02-28T13:38:59;-0.43;71.32
69715;HTU21D;56981;53.532;49.398;2023-02-28T13:51:52;-0.68;72.81
69715;HTU21D;56981;53.532;49.398;2023-02-28T14:05:27;-1.04;75.50
69715;HTU21D;56981;53.532;49.398;2023-02-28T14:08:03;-1.14;76.15
69715;HTU21D;56981;53.532;49.398;2023-02-28T14:10:36;-1.20;76.26
69715;HTU21D;56981;53.532;49.398;2023-02-28T14:15:59;-1.33;77.14
69715;HTU21D;56981;53.532;49.398;2023-02-28T14:18:29;-1.39;77.66
69715;HTU21D;56981;53.532;49.398;2023-02-28T14:21:21;-1.43;77.80
69715;HTU21D;56981;53.532;49.398;2023-02-28T14:37:23;-1.67;77.81
69715;HTU21D;56981;53.532;49.398;2023-02-28T14:39:53;-1.69;78.34
69715;HTU21D;56981;53.532;49.398;2023-02-28T14:42:35;-1.72;77.74
69715;HTU21D;56981;53.532;49.398;2023-02-28T14:45:04;-1.75;78.37
69715;HTU21D;56981;53.532;49.398;2023-02-28T14:47:32;-1.78;78.24
69715;HTU21D;56981;53.532;49.398;2023-02-28T14:50:00;-1.83;78.17
69715;HTU21D;56981;53.532;49.398;2023-02-28T14:52:29;-1.87;78.32
69715;HTU21D;56981;53.532;49.398;2023-02-28T14:55:04;-1.88;77.78
69715;HTU21D;56981;53.532;49.398;2023-02-28T14:57:34;-1.93;78.26
69715;HTU21D;56981;53.532;49.398;2023-02-28T15:02:47;-1.97;78.03
69715;HTU21D;56981;53.532;49.398;2023-02-28T15:07:41;-2.04;78.32
69715;HTU21D;56981;53.532;49.398;2023-02-28T15:10:24;-2.03;79.25
69715;HTU21D;56981;53.532;49.398;2023-02-28T15:12:56;-2.08;77.76
69715;HTU21D;56981;53.532;49.398;2023-02-28T15:15:39;-2.10;77.78
69715;HTU21D;56981;53.532;49.398;2023-02-28T15:18:07;-2.14;77.98
69715;HTU21D;56981;53.532;49.398;2023-02-28T15:20:39;-2.17;78.18
69715;HTU21D;56981;53.532;49.398;2023-02-28T15:23:07;-2.19;78.30
69715;HTU21D;56981;53.532;49.398;2023-02-28T15:25:34;-2.24;78.24
69715;HTU21D;56981;53.532;49.398;2023-02-28T15:28:00;-2.27;78.30
69715;HTU21D;56981;53.532;49.398;2023-02-28T15:30:29;-2.29;78.23
69715;HTU21D;56981;53.532;49.398;2023-02-28T15:35:38;-2.37;78.87
69715;HTU21D;56981;53.532;49.398;2023-02-28T15:38:25;-2.45;78.57
69715;HTU21D;56981;53.532;49.398;2023-02-28T15:40:54;-2.46;78.47
69715;HTU21D;56981;53.532;49.398;2023-02-28T15:43:30;-2.51;78.52
69715;HTU21D;56981;53.532;49.398;2023-02-28T15:46:07;-2.54;78.57
69715;HTU21D;56981;53.532;49.398;2023-02-28T15:48:58;-2.58;78.61
69715;HTU21D;56981;53.532;49.398;2023-02-28T15:51:26;-2.59;78.61
69715;HTU21D;56981;53.532;49.398;2023-02-28T15:54:12;-2.60;78.18
69715;HTU21D;56981;53.532;49.398;2023-02-28T15:56:51;-2.63;78.34
69715;HTU21D;56981;53.532;49.398;2023-02-28T15:59:25;-2.66;78.02
69715;HTU21D;56981;53.532;49.398;2023-02-28T16:04:36;-2.67;77.95
69715;HTU21D;56981;53.532;49.398;2023-02-28T16:07:11;-2.68;77.74
69715;HTU21D;56981;53.532;49.398;2023-02-28T16:09:38;-2.69;77.77
69715;HTU21D;56981;53.532;49.398;2023-02-28T16:12:05;-2.72;77.58
69715;HTU21D;56981;53.532;49.398;2023-02-28T16:14:31;-2.73;78.23
69715;HTU21D;56981;53.532;49.398;2023-02-28T16:17:18;-2.74;78.18
69715;HTU21D;56981;53.532;49.398;2023-02-28T16:19:46;-2.78;77.88
69715;HTU21D;56981;53.532;49.398;2023-02-28T16:22:13;-2.78;78.23
69715;HTU21D;56981;53.532;49.398;2023-02-28T16:24:39;-2.83;78.32
69715;HTU21D;56981;53.532;49.398;2023-02-28T16:27:24;-2.87;78.19
69715;HTU21D;56981;53.532;49.398;2023-02-28T16:29:52;-2.90;78.37
69715;HTU21D;56981;53.532;49.398;2023-02-28T16:32:22;-2.92;78.56
69715;HTU21D;56981;53.532;49.398;2023-02-28T16:34:49;-2.98;78.11
69715;HTU21D;56981;53.532;49.398;2023-02-28T16:37:17;-2.96;78.72
69715;HTU21D;56981;53.532;49.398;2023-02-28T16:39:47;-3.01;78.37
69715;HTU21D;56981;53.532;49.398;2023-02-28T16:42:24;-2.98;78.58
69715;HTU21D;56981;53.532;49.398;2023-02-28T16:44:52;-3.00;78.49
69715;HTU21D;56981;53.532;49.398;2023-02-28T16:47:19;-3.03;78.41
69715;HTU21D;56981;53.532;49.398;2023-02-28T16:49:46;-3.06;78.56
69715;HTU21D;56981;53.532;49.398;2023-02-28T16:52:14;-3.06;78.37
69715;HTU21D;56981;53.532;49.398;2023-02-28T16:54:44;-3.04;78.58
69715;HTU21D;56981;53.532;49.398;2023-02-28T16:57:19;-3.02;77.81
69715;HTU21D;56981;53.532;49.398;2023-02-28T16:59:48;-2.95;77.20
69715;HTU21D;56981;53.532;49.398;2023-02-28T17:02:15;-2.91;76.84
69715;HTU21D;56981;53.532;49.398;2023-02-28T17:04:42;-2.87;76.62
69715;HTU21D;56981;53.532;49.398;2023-02-28T17:07:15;-2.79;75.99
69715;HTU21D;56981;53.532;49.398;2023-02-28T17:09:44;-2.78;75.74
69715;HTU21D;56981;53.532;49.398;2023-02-28T17:12:12;-2.74;75.54
69715;HTU21D;56981;53.532;49.398;2023-02-28T17:14:38;-2.68;76.69
69715;HTU21D;56981;53.532;49.398;2023-02-28T17:17:06;-2.62;76.12
69715;HTU21D;56981;53.532;49.398;2023-02-28T17:19:34;-2.59;75.46
69715;HTU21D;56981;53.532;49.398;2023-02-28T17:22:02;-2.49;75.97
69715;HTU21D;56981;53.532;49.398;2023-02-28T17:24:29;-2.52;74.83
69715;HTU21D;56981;53.532;49.398;2023-02-28T17:26:57;-2.47;75.33
69715;HTU21D;56981;53.532;49.398;2023-02-28T17:29:25;-2.51;74.86
69715;HTU21D;56981;53.532;49.398;2023-02-28T17:31:51;-2.54;75.11
69715;HTU21D;56981;53.532;49.398;2023-02-28T17:34:18;-2.53;75.04
69715;HTU21D;56981;53.532;49.398;2023-02-28T17:36:46;-2.51;74.96
69715;HTU21D;56981;53.532;49.398;2023-02-28T17:39:14;-2.49;74.70
69715;HTU21D;56981;53.532;49.398;2023-02-28T17:41:42;-2.49;74.98
69715;HTU21D;56981;53.532;49.398;2023-02-28T17:44:09;-2.46;75.00
69715;HTU21D;56981;53.532;49.398;2023-02-28T17:46:36;-2.44;75.07
69715;HTU21D;56981;53.532;49.398;2023-02-28T17:49:03;-2.34;74.78
69715;HTU21D;56981;53.532;49.398;2023-02-28T17:51:31;-2.39;74.18
69715;HTU21D;56981;53.532;49.398;2023-02-28T17:53:57;-2.44;74.75
69715;HTU21D;56981;53.532;49.398;2023-02-28T17:56:25;-2.39;75.14
69715;HTU21D;56981;53.532;49.398;2023-02-28T17:58:53;-2.39;74.58